METAR v bližini

 

LIPQ - Ronchi Legionari, Italy
Oddaljenost od postaje: JZ 35km
Podatki zajeti: 22/04/2018 08:20
Jasno
Jasno
 Veter iz smeri V
Veter: V 7 km/h
Temperatura: 15°C
Temp. rosišča: 9°C
Vlažnost: 68%
Tlak: 1018 hPa
Stanje: Jasno
Vidljivost: večja od 10 km
2018/04/22 06:20 LIPQ 220620Z 10004KT CAVOK 15/09 Q1018
LIVT - Trieste, Italy
Oddaljenost od postaje: J 49km
Podatki zajeti: 22/04/2018 07:55
Jasno
Jasno
 Veter iz smeri calm
Veter: Tišina
Temperatura: 15°C
Temp. rosišča: 11°C
Vlažnost: 77%
Tlak: 1018 hPa
Stanje: Jasno
Vidljivost: večja od 10 km
2018/04/22 05:55 LIVT 220555Z 00000KT CAVOK 15/11 Q1018 RMK SKC QUK 0 QUL 0 VIS MAR 20 KM VIS MIN 9999
 
LIVO - Tarvisio, Italy
Oddaljenost od postaje: SSZ 49km
Podatki zajeti: 22/04/2018 07:55
Jasno
Jasno
 Veter iz smeri calm
Veter: Tišina
Temperatura: 10°C
Temp. rosišča: 9°C
Vlažnost: 94%
Tlak: 1018 hPa
Stanje: Jasno
Vidljivost: večja od 10 km
2018/04/22 05:55 LIVO 220555Z 00000KT CAVOK 10/09 Q1018 RMK SKC VIS MIN 9999
LIPI - Rivolto (it-Afb), Italy
Oddaljenost od postaje: ZJZ 57km
Podatki zajeti: 20/04/2018 11:55
Ni posodobljen
Jasno
Jasno
 Veter iz smeri JJV
Veter: JJV 6 km/h
Temperatura: 23°C
Temp. rosišča: 9°C
Vlažnost: 41%
Tlak: 1024 hPa
Stanje: Jasno
Vidljivost: večja od 10 km
2018/04/20 09:55 LIPI 200955Z 15003KT CAVOK 23/09 Q1024 RMK SKC VIS MIN 9999 WIND THR06 14003KT WIND THR24 /////KT BLU
 
LJLJ - Ljubljana/Brnik, Slovenia
Oddaljenost od postaje: VSV 59km
Podatki zajeti: 22/04/2018 08:30
Jasno
Jasno
 Veter iz smeri spremenljiv
Veter: spremenljiv 2 km/h
Temperatura: 14°C
Temp. rosišča: 9°C
Vlažnost: 72%
Tlak: 1018 hPa
Stanje: Jasno
Vidljivost: večja od 10 km
2018/04/22 06:30 LJLJ 220630Z VRB01KT CAVOK 14/09 Q1018 NOSIG
LJPZ - Portoroz, Slovenia
Oddaljenost od postaje: J 68km
Podatki zajeti: 22/04/2018 08:30
Jasno
Jasno
 Veter iz smeri VJV
Veter: VJV 11 km/h
Temperatura: 15°C
Temp. rosišča: 9°C
Vlažnost: 68%
Tlak: 1018 hPa
Stanje: Jasno
Vidljivost: večja od 10 km
2018/04/22 06:30 LJPZ 220630Z 12006KT CAVOK 15/09 Q1018
 
LOWK - Klagenfurt(Civ/M, Austria
Oddaljenost od postaje: SV 78km
Podatki zajeti: 22/04/2018 08:20
Jasno
Jasno
 Veter iz smeri spremenljiv
Veter: spremenljiv 4 km/h
Temperatura: 13°C
Temp. rosišča: 8°C
Vlažnost: 72%
Tlak: 1019 hPa
Stanje: Jasno
Vidljivost: večja od 10 km
2018/04/22 06:20 LOWK 220620Z VRB02KT CAVOK 13/08 Q1019 NOSIG
LIYW - Aviano (usaf), Italy
Oddaljenost od postaje: Z 86km
Podatki zajeti: 20/10/2015 15:58
Ni posodobljen
Jasno
Jasno
 Veter iz smeri JJZ
Veter: JJZ 6 km/h
Temperatura: 17°C
Temp. rosišča: 3°C
Vlažnost: 39%
Tlak: 1016.3 hPa
Oblačnost: Jasno
Vidljivost: 10 km
2015/10/20 13:58 LIYW 201358Z AUTO 21003KT 9999 CLR 17/03 A3001 RMK AO2 SLP167 T01660029
 
LIPA - Aviano (it/Us-Af, Italy
Oddaljenost od postaje: Z 89km
Podatki zajeti: 21/04/2018 21:55
Ni posodobljen
Jasno
Jasno
 Veter iz smeri SSV
Veter: SSV 7 km/h
Temperatura: 19°C
Temp. rosišča: 13°C
Vlažnost: 68%
Tlak: 1019 hPa
Stanje: Jasno
Vidljivost: večja od 10 km
2018/04/21 19:55 LIPA 211955Z 03004KT CAVOK 19/13 Q1019 RMK SKC VIS MIN 9999 WIND THR05 /////KT WIND THR23 /////KT A3009 BLU
LDRI - Rijeka/Omisalj, Croatia
Oddaljenost od postaje: JV 115km
Podatki zajeti: 22/04/2018 08:30
Jasno
Jasno
 Veter iz smeri calm
Veter: Tišina
Temperatura: 17°C
Temp. rosišča: 7°C
Vlažnost: 52%
Tlak: 1019 hPa
Stanje: Jasno
Vidljivost: večja od 10 km
2018/04/22 06:30 LDRI 220630Z 00000KT CAVOK 17/07 Q1019
 
LIPZ - Venezia/Tessera, Italy
Oddaljenost od postaje: ZJZ 127km
Podatki zajeti: 22/04/2018 08:20
Delno megleno, Delno oblačno
Delno megleno, Delno oblačno
 Veter iz smeri S
Veter: S 7 km/h
Temperatura: 15°C
Temp. rosišča: 13°C
Vlažnost: 88%
Tlak: 1018 hPa
Stanje: Delno megleno
Oblačnost: Delno oblačno
Vidljivost: 6 km
2018/04/22 06:20 LIPZ 220620Z 01004KT 6000 2000NE PRFG NSC 15/13 Q1018 NOSIG
LDPL - Pula, Croatia
Oddaljenost od postaje: J 133km
Podatki zajeti: 22/04/2018 08:30
Jasno
Jasno
 Veter iz smeri spremenljiv
Veter: spremenljiv 2 km/h
Temperatura: 19°C
Temp. rosišča: 10°C
Vlažnost: 56%
Tlak: 1018 hPa
Stanje: Jasno
Vidljivost: večja od 10 km
2018/04/22 06:30 LDPL 220630Z VRB01KT CAVOK 19/10 Q1018 NOSIG
 
LIPS - Istrana (it-Afb), Italy
Oddaljenost od postaje: ZJZ 136km
Podatki zajeti: 22/04/2018 07:55
Jasno
Jasno
 Veter iz smeri VSV
Veter: VSV 9 km/h
Temperatura: 14°C
Temp. rosišča: 12°C
Vlažnost: 88%
Tlak: 1019 hPa
Stanje: Jasno
Vidljivost: večja od 10 km
2018/04/22 05:55 LIPS 220555Z 07005KT CAVOK 14/12 Q1019 RMK SKC VIS MIN 9999 WIND THR26 06003KT WIND THR08 05003KT BLU
LIVD - Dobbiaco, Italy
Oddaljenost od postaje: ZSZ 137km
Podatki zajeti: 22/04/2018 07:55

 
2018/04/22 05:55 LIVD 220555Z ///02KT CAVOK 08/06 Q1011 RMK SKC VIS MIN 9999
 
LJCE - Cerklje, Slovenia
Oddaljenost od postaje: V 139km
Podatki zajeti: 22/04/2018 08:30
Jasno
Jasno
 Veter iz smeri Z
Veter: Z 7 km/h
Temperatura: 16°C
Temp. rosišča: 10°C
Vlažnost: 68%
Tlak: 1017 hPa
Stanje: Jasno
Vidljivost: večja od 10 km
2018/04/22 06:30 LJCE 220630Z 27004KT CAVOK 16/10 Q1017 RMK BLU
LOXZ - Zeltweg (mil), Austria
Oddaljenost od postaje: SSV 147km
Podatki zajeti: 22/04/2018 08:20
Rahlo oblačno
Rahlo oblačno
 Veter iz smeri spremenljiv
Veter: spremenljiv 2 km/h
Temperatura: 11°C
Temp. rosišča: 7°C
Vlažnost: 77%
Tlak: 1019 hPa
Oblačnost: Rahlo oblačno
Podrobnosti o oblakih: Rahlo oblačno 1829 m
2018/04/22 06:20 LOXZ 220620Z VRB01KT 30KM FEW060SC 11/07 Q1019 NOSIG